createdAt,value
2022-10-01T00:02:54.606Z,100360.22
2022-10-01T00:06:09.547Z,100362.56
2022-10-01T00:09:12.351Z,100354.84
2022-10-01T00:12:15.823Z,100342.34
2022-10-01T00:15:19.673Z,100352.00
2022-10-01T00:18:22.587Z,100430.75
2022-10-01T00:21:28.081Z,100441.91
2022-10-01T00:24:30.836Z,100378.28
2022-10-01T00:27:33.464Z,100362.03
2022-10-01T00:30:39.693Z,100363.06
2022-10-01T00:33:43.404Z,100354.72
2022-10-01T00:36:46.359Z,100355.56
2022-10-01T00:39:48.925Z,100356.09
2022-10-01T00:42:51.668Z,100347.59
2022-10-01T00:46:02.179Z,100332.81
2022-10-01T00:49:17.780Z,100342.47
2022-10-01T00:52:24.903Z,100339.19
2022-10-01T00:55:41.036Z,100342.56
2022-10-01T00:58:44.002Z,100343.31
2022-10-01T01:01:46.825Z,100335.34
2022-10-01T01:04:49.336Z,100351.88
2022-10-01T01:07:53.675Z,100345.25
2022-10-01T01:11:11.751Z,100336.00
2022-10-01T01:14:33.432Z,100333.59
2022-10-01T01:18:15.241Z,100333.72
2022-10-01T01:21:28.925Z,100333.81
2022-10-01T01:24:50.045Z,100342.78
2022-10-01T01:28:13.075Z,100359.09
2022-10-01T01:31:24.560Z,100382.87
2022-10-01T01:34:31.795Z,100374.31
2022-10-01T01:37:38.642Z,100359.06
2022-10-01T01:40:44.546Z,100344.00
2022-10-01T01:43:51.367Z,100346.75
2022-10-01T01:46:56.810Z,100333.31
2022-10-01T01:50:02.910Z,100344.72
2022-10-01T01:53:05.769Z,100349.16
2022-10-01T01:56:08.774Z,100338.53
2022-10-01T01:59:13.575Z,100350.75
2022-10-01T02:02:33.234Z,100344.53
2022-10-01T02:05:48.298Z,100333.13
2022-10-01T02:09:27.637Z,100328.78
2022-10-01T02:13:04.055Z,100326.16
2022-10-01T02:16:30.587Z,100330.81
2022-10-01T02:19:41.230Z,100329.13
2022-10-01T02:22:53.003Z,100317.12
2022-10-01T02:26:02.669Z,100326.25
2022-10-01T02:29:11.320Z,100334.97
2022-10-01T02:32:17.284Z,100338.66
2022-10-01T02:35:21.697Z,100344.53
2022-10-01T02:38:26.197Z,100347.25
2022-10-01T02:41:36.070Z,100349.06
2022-10-01T02:44:45.053Z,100345.50
2022-10-01T02:47:50.123Z,100333.06
2022-10-01T02:50:58.609Z,100346.47
2022-10-01T02:54:19.888Z,100346.72
2022-10-01T02:57:23.385Z,100340.75
2022-10-01T03:00:27.061Z,100342.34
2022-10-01T03:03:31.596Z,100350.06
2022-10-01T03:06:36.098Z,100345.63
2022-10-01T03:09:39.242Z,100351.59
2022-10-01T03:12:45.315Z,100344.63
2022-10-01T03:15:50.363Z,100339.66
2022-10-01T03:18:53.203Z,100337.88
2022-10-01T03:21:56.484Z,100333.47
2022-10-01T03:24:59.000Z,100324.22
2022-10-01T03:28:01.998Z,100335.47
2022-10-01T03:31:09.271Z,100354.63
2022-10-01T03:34:13.347Z,100323.22
2022-10-01T03:37:15.784Z,100344.19
2022-10-01T03:40:19.338Z,100358.06
2022-10-01T03:43:21.815Z,100373.34
2022-10-01T03:46:27.381Z,100404.56
2022-10-01T03:49:29.942Z,100388.25
2022-10-01T03:52:32.662Z,100391.19
2022-10-01T03:55:35.152Z,100382.06
2022-10-01T03:58:37.800Z,100362.63
2022-10-01T04:01:40.327Z,100367.06
2022-10-01T04:04:43.007Z,100354.88
2022-10-01T04:07:46.247Z,100346.22
2022-10-01T04:10:49.559Z,100343.78
2022-10-01T04:13:52.117Z,100334.31
2022-10-01T04:16:54.851Z,100334.81
2022-10-01T04:19:57.810Z,100336.34
2022-10-01T04:23:01.145Z,100331.19
2022-10-01T04:26:03.938Z,100342.56
2022-10-01T04:29:06.816Z,100338.03
2022-10-01T04:32:09.257Z,100327.59
2022-10-01T04:35:12.079Z,100330.22
2022-10-01T04:38:17.127Z,100330.47
2022-10-01T04:41:20.622Z,100341.72
2022-10-01T04:44:23.189Z,100341.63
2022-10-01T04:47:25.984Z,100343.47
2022-10-01T04:50:29.156Z,100340.94
2022-10-01T04:53:32.335Z,100331.31
2022-10-01T04:56:34.824Z,100339.13
2022-10-01T04:59:37.707Z,100340.94
2022-10-01T05:02:40.308Z,100347.91
2022-10-01T05:05:43.143Z,100349.44
2022-10-01T05:08:45.695Z,100345.91
2022-10-01T05:11:52.019Z,100343.47
2022-10-01T05:14:55.676Z,100351.97
2022-10-01T05:17:58.592Z,100358.00
2022-10-01T05:21:07.957Z,100353.03
2022-10-01T05:24:10.748Z,100366.22
2022-10-01T05:27:13.348Z,100386.97
2022-10-01T05:30:22.179Z,100398.22
2022-10-01T05:33:24.629Z,100386.06
2022-10-01T05:36:27.368Z,100382.34
2022-10-01T05:39:30.704Z,100382.03
2022-10-01T05:42:33.527Z,100390.56
2022-10-01T05:45:36.091Z,100375.00
2022-10-01T05:48:38.921Z,100367.25
2022-10-01T05:51:41.576Z,100350.91
2022-10-01T05:54:44.413Z,100359.13
2022-10-01T05:57:57.280Z,100356.38
2022-10-01T06:01:00.120Z,100374.69
2022-10-01T06:04:02.969Z,100369.63
2022-10-01T06:07:05.579Z,100364.50
2022-10-01T06:10:09.251Z,100348.72
2022-10-01T06:13:16.592Z,100355.59
2022-10-01T06:16:20.889Z,100342.41
2022-10-01T06:19:23.546Z,100328.47
2022-10-01T06:22:26.360Z,100327.97
2022-10-01T06:25:31.974Z,100347.81
2022-10-01T06:28:34.831Z,100337.06
2022-10-01T06:31:37.839Z,100297.63
2022-10-01T06:34:41.064Z,100301.63
2022-10-01T06:37:43.575Z,100311.97
2022-10-01T06:41:00.258Z,100329.19
2022-10-01T06:44:02.694Z,100343.31
2022-10-01T06:47:05.951Z,100359.25
2022-10-01T06:50:09.148Z,100346.84
2022-10-01T06:53:13.552Z,100349.63
2022-10-01T06:56:16.153Z,100332.88
2022-10-01T06:59:19.072Z,100342.31
2022-10-01T07:02:28.073Z,100335.84
2022-10-01T07:05:30.987Z,100338.09
2022-10-01T07:08:33.610Z,100337.84
2022-10-01T07:11:41.219Z,100341.28
2022-10-01T07:14:43.667Z,100338.87
2022-10-01T07:17:49.601Z,100335.87
2022-10-01T07:20:52.265Z,100339.47
2022-10-01T07:23:55.182Z,100338.06
2022-10-01T07:26:57.646Z,100334.50
2022-10-01T07:30:00.507Z,100327.78
2022-10-01T07:33:03.035Z,100318.37
2022-10-01T07:36:08.560Z,100313.47
2022-10-01T07:39:14.066Z,100307.75
2022-10-01T07:42:17.149Z,100298.63
2022-10-01T07:45:21.877Z,100299.22
2022-10-01T07:48:25.504Z,100295.31
2022-10-01T07:51:28.124Z,100292.72
2022-10-01T07:54:30.878Z,100300.94
2022-10-01T07:57:34.190Z,100309.97
2022-10-01T08:00:37.918Z,100304.38
2022-10-01T08:03:43.479Z,100307.63
2022-10-01T08:06:49.002Z,100305.03
2022-10-01T08:09:51.687Z,100302.75
2022-10-01T08:13:01.367Z,100309.81
2022-10-01T08:16:04.296Z,100306.97
2022-10-01T08:19:09.925Z,100298.88
2022-10-01T08:22:12.632Z,100295.78
2022-10-01T08:25:15.337Z,100307.31
2022-10-01T08:28:18.338Z,100311.56
2022-10-01T08:31:20.925Z,100315.19
2022-10-01T08:34:23.734Z,100314.31
2022-10-01T08:37:27.852Z,100314.31
2022-10-01T08:40:38.923Z,100302.28
2022-10-01T08:43:42.358Z,100291.13
2022-10-01T08:46:46.211Z,100265.03
2022-10-01T08:49:53.688Z,100261.16
2022-10-01T08:53:01.703Z,100259.16
2022-10-01T08:56:17.885Z,100267.00
2022-10-01T08:59:38.300Z,100267.37
2022-10-01T09:02:43.473Z,100263.81
2022-10-01T09:06:12.414Z,100265.31
2022-10-01T09:09:29.749Z,100268.84
2022-10-01T09:12:53.918Z,100264.75
2022-10-01T09:16:08.664Z,100255.47
2022-10-01T09:19:31.826Z,100256.75
2022-10-01T09:22:49.794Z,100256.34
2022-10-01T09:25:52.597Z,100266.00
2022-10-01T09:28:58.441Z,100254.72
2022-10-01T09:32:04.666Z,100252.94
2022-10-01T09:35:25.316Z,100252.09
2022-10-01T09:38:36.286Z,100251.22
2022-10-01T09:41:38.816Z,100239.31
2022-10-01T09:44:42.773Z,100232.31
2022-10-01T09:47:51.937Z,100236.69
2022-10-01T09:50:59.329Z,100244.03
2022-10-01T09:54:26.248Z,100242.00
2022-10-01T09:57:35.203Z,100237.47
2022-10-01T10:00:39.422Z,100225.19
2022-10-01T10:03:53.760Z,100224.97
2022-10-01T10:07:03.092Z,100222.00
2022-10-01T10:10:25.512Z,100217.94
2022-10-01T10:13:49.123Z,100220.69
2022-10-01T10:16:51.852Z,100205.38
2022-10-01T10:19:54.791Z,100189.37
2022-10-01T10:23:19.100Z,100190.78
2022-10-01T10:26:28.462Z,100185.06
2022-10-01T10:29:37.013Z,100182.44
2022-10-01T10:32:40.080Z,100175.31
2022-10-01T10:35:43.403Z,100176.25
2022-10-01T10:38:49.855Z,100177.91
2022-10-01T10:41:53.823Z,100178.28
2022-10-01T10:45:03.509Z,100182.06
2022-10-01T10:48:12.582Z,100171.38
2022-10-01T10:51:15.096Z,100170.13
2022-10-01T10:54:33.724Z,100166.88
2022-10-01T10:57:36.664Z,100154.34
2022-10-01T11:00:52.512Z,100159.09
2022-10-01T11:04:00.536Z,100147.38
2022-10-01T11:07:03.434Z,100147.31
2022-10-01T11:10:29.949Z,100147.50
2022-10-01T11:13:49.636Z,100141.75
2022-10-01T11:17:04.933Z,100132.16
2022-10-01T11:20:34.186Z,100119.13
2022-10-01T11:23:46.233Z,100113.12
2022-10-01T11:26:58.356Z,100100.19
2022-10-01T11:30:04.495Z,100099.78
2022-10-01T11:33:16.295Z,100094.09
2022-10-01T11:36:41.373Z,100088.97
2022-10-01T11:39:51.844Z,100081.06
2022-10-01T11:43:01.895Z,100083.25
2022-10-01T11:46:12.196Z,100069.25
2022-10-01T11:49:28.543Z,100068.53
2022-10-01T11:52:43.854Z,100072.62
2022-10-01T11:56:16.695Z,100055.13
2022-10-01T11:59:23.701Z,100048.19
2022-10-01T12:02:54.828Z,100049.72
2022-10-01T12:05:58.899Z,100041.09
2022-10-01T12:09:14.273Z,100044.44
2022-10-01T12:12:30.084Z,100032.34
2022-10-01T12:15:43.860Z,100032.38
2022-10-01T12:19:01.064Z,100032.75
2022-10-01T12:22:34.611Z,100035.78
2022-10-01T12:25:49.128Z,100033.25
2022-10-01T12:29:00.289Z,100020.16
2022-10-01T12:32:47.732Z,100025.31
2022-10-01T12:36:47.543Z,100026.91
2022-10-01T12:40:10.437Z,100015.00
2022-10-01T12:43:15.951Z,100014.88
2022-10-01T12:46:25.803Z,100030.91
2022-10-01T12:49:56.665Z,100025.47
2022-10-01T12:53:18.189Z,100025.62
2022-10-01T12:56:33.495Z,100024.59
2022-10-01T12:59:58.763Z,100009.59
2022-10-01T13:03:44.456Z,100007.47
2022-10-01T13:06:56.588Z,100002.22
2022-10-01T13:10:24.452Z,99997.22
2022-10-01T13:13:38.692Z,99990.81
2022-10-01T13:17:05.564Z,99989.25
2022-10-01T13:20:27.430Z,99976.63
2022-10-01T13:23:58.135Z,99964.84
2022-10-01T13:27:15.644Z,99963.81
2022-10-01T13:30:27.821Z,99974.75
2022-10-01T13:33:35.977Z,99961.13
2022-10-01T13:36:38.983Z,99954.47
2022-10-01T13:39:43.491Z,99964.31
2022-10-01T13:42:47.608Z,99958.28
2022-10-01T13:45:54.368Z,99946.63
2022-10-01T13:49:07.833Z,99944.62
2022-10-01T13:52:20.064Z,99946.66
2022-10-01T13:55:27.768Z,99931.81
2022-10-01T13:58:45.068Z,99934.22
2022-10-01T14:01:47.896Z,99935.31
2022-10-01T14:04:51.515Z,99924.91
2022-10-01T14:08:11.818Z,99925.50
2022-10-01T14:11:37.278Z,99922.66
2022-10-01T14:15:09.826Z,99926.75
2022-10-01T14:18:19.179Z,99929.72
2022-10-01T14:21:38.328Z,99939.00
2022-10-01T14:24:55.577Z,99935.94
2022-10-01T14:28:09.528Z,99941.59
2022-10-01T14:31:21.300Z,99940.78
2022-10-01T14:34:31.278Z,99937.53
2022-10-01T14:37:38.431Z,99928.75
2022-10-01T14:40:46.838Z,99935.13
2022-10-01T14:43:49.675Z,99926.84
2022-10-01T14:46:54.337Z,99917.72
2022-10-01T14:49:57.242Z,99925.37
2022-10-01T14:53:00.103Z,99918.91
2022-10-01T14:56:12.484Z,99913.34
2022-10-01T14:59:22.945Z,99913.47
2022-10-01T15:02:27.249Z,99918.19
2022-10-01T15:05:33.285Z,99920.00
2022-10-01T15:08:47.922Z,99925.72
2022-10-01T15:11:51.706Z,99925.22
2022-10-01T15:14:54.702Z,99926.31
2022-10-01T15:17:57.328Z,99926.06
2022-10-01T15:21:06.758Z,99928.69
2022-10-01T15:24:22.426Z,99936.06
2022-10-01T15:27:26.080Z,99938.91
2022-10-01T15:30:32.627Z,99950.88
2022-10-01T15:33:37.914Z,99950.03
2022-10-01T15:36:41.147Z,99956.94
2022-10-01T15:39:48.765Z,99955.00
2022-10-01T15:43:12.914Z,99960.91
2022-10-01T15:46:19.050Z,99969.47
2022-10-01T15:49:24.968Z,99961.94
2022-10-01T15:52:48.947Z,99956.25
2022-10-01T15:55:56.971Z,99956.56
2022-10-01T15:59:09.912Z,99952.47
2022-10-01T16:02:19.880Z,99950.50
2022-10-01T16:05:47.147Z,99954.91
2022-10-01T16:09:06.694Z,99953.22
2022-10-01T16:12:09.360Z,99949.47
2022-10-01T16:16:04.544Z,99956.28
2022-10-01T16:19:28.268Z,99957.44
2022-10-01T16:22:33.842Z,99951.69
2022-10-01T16:25:44.790Z,99957.75
2022-10-01T16:28:47.436Z,99951.88
2022-10-01T16:31:50.748Z,99952.84
2022-10-01T16:34:53.673Z,99963.59
2022-10-01T16:37:58.119Z,99959.75
2022-10-01T16:41:01.211Z,99957.34
2022-10-01T16:44:08.088Z,99966.00
2022-10-01T16:47:11.995Z,99964.44
2022-10-01T16:50:17.761Z,99966.84
2022-10-01T16:53:20.923Z,99969.66
2022-10-01T16:56:34.209Z,99968.53
2022-10-01T16:59:36.915Z,99965.41
2022-10-01T17:02:39.707Z,99970.19
2022-10-01T17:05:42.581Z,99969.97
2022-10-01T17:08:45.302Z,99963.72
2022-10-01T17:11:49.569Z,99962.16
2022-10-01T17:14:56.322Z,99964.00
2022-10-01T17:17:59.564Z,99961.41
2022-10-01T17:21:04.150Z,99963.09
2022-10-01T17:24:10.604Z,99964.44
2022-10-01T17:27:13.356Z,99951.38
2022-10-01T17:30:16.411Z,99948.25
2022-10-01T17:33:19.854Z,99959.00
2022-10-01T17:36:22.389Z,99956.06
2022-10-01T17:39:25.326Z,99964.84
2022-10-01T17:42:27.901Z,99967.88
2022-10-01T17:45:30.728Z,99965.66
2022-10-01T17:48:33.257Z,99978.19
2022-10-01T17:51:36.754Z,99974.03
2022-10-01T17:54:39.228Z,99982.25
2022-10-01T17:57:42.000Z,99982.75
2022-10-01T18:00:44.589Z,99986.66
2022-10-01T18:03:47.783Z,99984.91
2022-10-01T18:06:52.203Z,99982.69
2022-10-01T18:09:54.981Z,99972.78
2022-10-01T18:12:57.646Z,99978.16
2022-10-01T18:16:05.734Z,99975.03
2022-10-01T18:22:32.370Z,99977.87
2022-10-01T18:25:34.867Z,99998.69
2022-10-01T18:28:38.116Z,100002.81
2022-10-01T18:31:41.342Z,100002.91
2022-10-01T18:35:00.734Z,100011.78
2022-10-01T18:38:12.428Z,100006.22
2022-10-01T18:41:26.500Z,100021.03
2022-10-01T18:44:29.167Z,100012.66
2022-10-01T18:47:42.879Z,100022.44
2022-10-01T18:51:24.022Z,100033.59
2022-10-01T18:54:37.473Z,100046.66
2022-10-01T18:57:55.001Z,100038.19
2022-10-01T19:01:29.050Z,100039.97
2022-10-01T19:04:54.861Z,100042.19
2022-10-01T19:08:11.211Z,100040.41
2022-10-01T19:11:23.248Z,100033.44
2022-10-01T19:14:37.773Z,100043.38
2022-10-01T19:17:46.835Z,100039.75
2022-10-01T19:21:23.839Z,100041.88
2022-10-01T19:24:40.400Z,100039.38
2022-10-01T19:28:01.117Z,100042.72
2022-10-01T19:31:09.759Z,100042.94
2022-10-01T19:34:21.543Z,100040.28
2022-10-01T19:37:39.318Z,100040.59
2022-10-01T19:41:24.540Z,100044.78
2022-10-01T19:45:03.099Z,100049.78
2022-10-01T19:48:30.158Z,100051.00
2022-10-01T19:51:39.523Z,100056.22
2022-10-01T19:54:54.015Z,100054.63
2022-10-01T19:57:56.735Z,100055.56
2022-10-01T20:01:03.020Z,100056.31
2022-10-01T20:04:18.348Z,100060.22
2022-10-01T20:07:27.207Z,100065.53
2022-10-01T20:10:37.655Z,100068.59
2022-10-01T20:13:54.839Z,100076.25
2022-10-01T20:16:57.908Z,100068.50
2022-10-01T20:20:36.773Z,100070.66
2022-10-01T20:23:53.563Z,100075.50
2022-10-01T20:27:34.492Z,100074.66
2022-10-01T20:30:50.052Z,100068.53
2022-10-01T20:34:09.922Z,100066.03
2022-10-01T20:37:37.183Z,100070.59
2022-10-01T20:40:53.201Z,100083.91
2022-10-01T20:43:59.115Z,100094.53
2022-10-01T20:47:27.881Z,100098.91
2022-10-01T20:50:38.649Z,100105.63
2022-10-01T20:53:53.449Z,100105.13
2022-10-01T20:56:59.683Z,100105.44
2022-10-01T21:00:29.476Z,100104.31
2022-10-01T21:03:35.942Z,100125.44
2022-10-01T21:06:45.695Z,100132.78
2022-10-01T21:09:53.183Z,100145.94
2022-10-01T21:13:13.467Z,100150.66
2022-10-01T21:16:38.368Z,100144.97
2022-10-01T21:19:55.100Z,100157.53
2022-10-01T21:23:35.901Z,100157.19
2022-10-01T21:26:44.415Z,100156.38
2022-10-01T21:30:02.129Z,100170.28
2022-10-01T21:33:11.616Z,100168.16
2022-10-01T21:36:27.898Z,100177.44
2022-10-01T21:39:32.517Z,100179.22
2022-10-01T21:42:38.929Z,100176.50
2022-10-01T21:45:47.673Z,100176.19
2022-10-01T21:49:26.865Z,100175.75
2022-10-01T21:52:44.541Z,100171.97
2022-10-01T21:56:03.448Z,100171.66
2022-10-01T21:59:26.284Z,100169.00
2022-10-01T22:02:37.838Z,100166.91
2022-10-01T22:06:03.488Z,100168.31
2022-10-01T22:09:22.364Z,100178.91
2022-10-01T22:12:29.537Z,100173.69
2022-10-01T22:15:39.469Z,100166.44
2022-10-01T22:18:58.108Z,100166.37
2022-10-01T22:22:09.464Z,100164.03
2022-10-01T22:25:13.765Z,100151.41
2022-10-01T22:28:25.131Z,100146.13
2022-10-01T22:31:33.535Z,100154.50
2022-10-01T22:34:41.087Z,100158.56
2022-10-01T22:37:53.739Z,100161.00
2022-10-01T22:41:14.307Z,100172.66
2022-10-01T22:44:19.935Z,100154.81
2022-10-01T22:47:51.614Z,100168.09
2022-10-01T22:51:31.766Z,100185.63
2022-10-01T22:54:49.584Z,100197.69
2022-10-01T22:57:57.481Z,100192.47
2022-10-01T23:01:37.040Z,100209.81
2022-10-01T23:05:18.213Z,100217.03
2022-10-01T23:08:49.924Z,100218.97
2022-10-01T23:12:03.740Z,100219.50
2022-10-01T23:15:33.879Z,100204.03
2022-10-01T23:18:55.706Z,100209.25
2022-10-01T23:22:07.257Z,100197.59
2022-10-01T23:25:23.876Z,100188.63
2022-10-01T23:28:45.348Z,100209.09
2022-10-01T23:32:07.856Z,100195.06
2022-10-01T23:35:14.683Z,100202.59
2022-10-01T23:38:47.760Z,100206.41
2022-10-01T23:42:08.974Z,100213.69
2022-10-01T23:45:19.246Z,100212.75
2022-10-01T23:48:38.850Z,100205.97
2022-10-01T23:52:08.563Z,100207.63
2022-10-01T23:56:07.903Z,100210.50
2022-10-01T23:59:16.470Z,100207.31
